Kartaly, Russia
Current Conditions -  °F | °C
As of 12:30 AM on Friday 24 Oct 2014 (Local Time) from USCM Reporting Station
Scattered Clouds Scattered Clouds  
Wind Chill:   Ceiling: Unl
Heat Index: 14°   Visibility: 5mi
Dew Point:   Wind: 11mph
Humidity: 62%   Direction: 330°NNW
Pressure: 29.74"   Gusts: NA
Location:  53.05°N, 60.67°E
Report Text: USCM 231830Z 33005MPS 8000 SCT033CB M10/M16 Q1007 NOSIG01090065 RMK QFE716
Loading
Personal Weather Stations






























Interactive Weather Map
Tropical Storm Tracking
New forecast layout! Learn more

10-Day Weather Forecast

Advertisements
Track Severe Weather on mobile